Time;durP1;ratioP1;P1;durP2;ratioP2;P2;SDS_P1;SDS_P2;PMS_P1;PMS_P2;Temp;Humidity;BMP_temperature;BMP_pressure;BME280_temperature;BME280_humidity;BME280_pressure;Samples;Min_cycle;Max_cycle;Signal;HPM_P1;HPM_P2
2024/04/25 00:00:44;;;;;;;5.03;4.45;;;23.50;48.20;;;;;;6583685;26;78706;-59
2024/04/25 00:03:45;;;;;;;5.43;4.30;;;23.50;48.10;;;;;;6578170;26;79758;-60
2024/04/25 00:06:45;;;;;;;5.22;4.32;;;23.50;48.10;;;;;;6577052;26;79205;-60
2024/04/25 00:09:46;;;;;;;6.07;4.40;;;23.50;48.20;;;;;;6569694;26;80346;-60
2024/04/25 00:12:46;;;;;;;5.53;4.78;;;23.50;48.10;;;;;;6539334;26;80377;-61
2024/04/25 00:15:47;;;;;;;5.97;4.28;;;23.50;48.10;;;;;;6569469;26;80080;-59
2024/04/25 00:18:48;;;;;;;6.07;4.47;;;23.50;48.10;;;;;;6572195;26;80288;-61
2024/04/25 00:21:49;;;;;;;4.97;4.47;;;23.50;48.10;;;;;;6588177;26;84105;-61
2024/04/25 00:24:49;;;;;;;5.68;4.15;;;23.50;48.10;;;;;;6597243;26;80862;-61
2024/04/25 00:27:50;;;;;;;5.35;4.53;;;23.50;48.10;;;;;;6582042;26;79470;-61
2024/04/25 00:30:50;;;;;;;6.15;4.43;;;23.50;48.10;;;;;;6624212;26;79929;-62
2024/04/25 00:33:51;;;;;;;5.38;4.30;;;23.50;48.10;;;;;;6570269;26;78745;-61
2024/04/25 00:36:52;;;;;;;4.78;4.10;;;23.50;48.10;;;;;;6589723;26;80157;-61
2024/04/25 00:39:54;;;;;;;5.65;4.57;;;23.50;48.10;;;;;;6599859;26;79232;-62
2024/04/25 00:42:57;;;;;;;4.90;3.92;;;23.50;48.20;;;;;;6623301;26;79111;-62
2024/04/25 00:45:57;;;;;;;5.78;3.72;;;23.50;48.10;;;;;;6600323;26;81209;-61
2024/04/25 00:48:58;;;;;;;5.35;4.20;;;23.50;48.80;;;;;;6617533;26;79157;-60
2024/04/25 00:51:58;;;;;;;5.30;3.85;;;23.50;48.10;;;;;;6579346;26;79905;-60
2024/04/25 00:54:59;;;;;;;5.32;3.60;;;23.50;48.20;;;;;;6595920;26;81727;-60
2024/04/25 00:57:59;;;;;;;4.68;3.83;;;23.50;48.40;;;;;;6600071;26;78690;-61
2024/04/25 01:01:00;;;;;;;5.00;4.10;;;23.50;48.20;;;;;;6615921;26;79271;-59
2024/04/25 01:04:00;;;;;;;5.75;4.25;;;23.50;48.30;;;;;;6609564;26;80392;-57
2024/04/25 01:07:01;;;;;;;5.05;3.90;;;23.50;48.30;;;;;;6598662;26;80091;-59
2024/04/25 01:10:01;;;;;;;3.70;3.05;;;23.50;48.30;;;;;;6582351;26;79873;-57
2024/04/25 01:13:02;;;;;;;4.90;3.65;;;23.50;48.50;;;;;;6579950;26;81594;-55
2024/04/25 01:16:04;;;;;;;4.95;4.13;;;23.50;48.40;;;;;;6590851;26;80149;-56
2024/04/25 01:19:04;;;;;;;5.05;3.95;;;23.50;48.40;;;;;;6603350;26;80084;-56
2024/04/25 01:22:05;;;;;;;6.13;4.00;;;23.50;48.50;;;;;;6605468;26;80252;-56
2024/04/25 01:25:05;;;;;;;5.53;4.22;;;23.50;48.50;;;;;;6590791;26;80306;-57
2024/04/25 01:28:06;;;;;;;4.35;3.60;;;23.50;48.50;;;;;;6581333;26;80820;-57
2024/04/25 01:31:06;;;;;;;4.57;3.60;;;23.50;48.60;;;;;;6585378;26;78818;-54
2024/04/25 01:34:07;;;;;;;4.45;3.35;;;23.50;48.80;;;;;;6583695;26;79126;-56
2024/04/25 01:37:07;;;;;;;4.72;3.47;;;23.50;48.60;;;;;;6584573;26;80147;-61
2024/04/25 01:40:08;;;;;;;4.53;3.78;;;23.50;48.80;;;;;;6602795;26;79329;-61
2024/04/25 01:43:09;;;;;;;4.30;3.42;;;23.50;48.70;;;;;;6605135;26;79991;-62
2024/04/25 01:46:09;;;;;;;4.80;3.83;;;23.50;48.70;;;;;;6617031;26;80086;-62
2024/04/25 01:49:10;;;;;;;5.25;3.80;;;23.50;48.70;;;;;;6579053;26;78998;-61
2024/04/25 01:52:10;;;;;;;4.25;3.60;;;23.50;48.60;;;;;;6598351;26;80436;-61
2024/04/25 01:55:11;;;;;;;5.57;4.13;;;23.50;48.60;;;;;;6586031;26;79131;-60
2024/04/25 01:58:11;;;;;;;5.25;3.72;;;23.50;48.40;;;;;;6567863;26;80258;-60
2024/04/25 02:01:12;;;;;;;4.80;3.53;;;23.50;48.10;;;;;;6587635;26;79612;-61
2024/04/25 02:04:12;;;;;;;6.68;4.57;;;23.50;48.00;;;;;;6604506;26;80874;-61
2024/04/25 02:07:13;;;;;;;7.07;4.68;;;23.50;48.00;;;;;;6587209;26;79927;-61
2024/04/25 02:10:13;;;;;;;6.55;4.50;;;23.50;47.80;;;;;;6596778;26;79646;-60
2024/04/25 02:13:14;;;;;;;6.07;4.50;;;23.50;47.60;;;;;;6571322;26;82139;-61
2024/04/25 02:16:14;;;;;;;5.60;4.32;;;23.50;47.60;;;;;;6575320;26;79493;-61
2024/04/25 02:19:15;;;;;;;5.70;4.53;;;23.50;47.60;;;;;;6584504;26;79172;-61
2024/04/25 02:25:34;;;;;;;4.85;3.92;;;23.50;47.60;;;;;;6540044;26;80396;-62
2024/04/25 02:28:35;;;;;;;6.07;4.43;;;23.50;47.70;;;;;;6554575;26;79098;-61
2024/04/25 02:31:39;;;;;;;5.90;4.07;;;23.50;47.70;;;;;;6588705;26;80122;-61
2024/04/25 02:34:40;;;;;;;5.07;4.45;;;23.50;47.60;;;;;;6561703;26;79280;-63
2024/04/25 02:37:41;;;;;;;6.68;4.45;;;23.50;47.60;;;;;;6577134;26;78873;-63
2024/04/25 02:40:41;;;;;;;6.45;4.10;;;23.50;47.50;;;;;;6585960;26;83054;-63
2024/04/25 02:43:42;;;;;;;4.95;4.38;;;23.50;47.70;;;;;;6601440;26;78904;-62
2024/04/25 02:46:42;;;;;;;5.28;4.68;;;23.50;47.70;;;;;;6603280;26;80075;-61
2024/04/25 02:49:43;;;;;;;4.82;4.05;;;23.40;47.50;;;;;;6579110;26;78948;-62
2024/04/25 02:52:43;;;;;;;5.82;4.32;;;23.40;47.50;;;;;;6541489;26;79978;-61
2024/04/25 02:55:44;;;;;;;5.20;4.38;;;23.50;47.70;;;;;;6536691;26;78914;-61
2024/04/25 02:58:44;;;;;;;5.03;3.78;;;23.50;47.80;;;;;;6555394;26;79181;-61
2024/04/25 03:01:45;;;;;;;5.20;4.22;;;23.50;47.80;;;;;;6595630;26;80481;-61
2024/04/25 03:04:45;;;;;;;4.20;3.65;;;23.50;47.80;;;;;;6572889;26;79610;-60
2024/04/25 03:07:46;;;;;;;4.15;3.30;;;23.50;48.50;;;;;;6550931;26;79476;-60
2024/04/25 03:10:46;;;;;;;4.00;3.42;;;23.50;48.00;;;;;;6547311;26;79144;-60
2024/04/25 03:13:47;;;;;;;3.55;3.17;;;23.50;48.00;;;;;;6565440;26;79276;-60
2024/04/25 03:16:48;;;;;;;5.15;4.43;;;23.50;47.90;;;;;;6567016;26;79520;-60
2024/04/25 03:19:48;;;;;;;5.32;4.53;;;23.50;47.50;;;;;;6561037;26;80812;-60
2024/04/25 03:22:49;;;;;;;4.70;4.03;;;23.50;47.60;;;;;;6567811;26;80557;-61
2024/04/25 03:25:49;;;;;;;5.05;3.92;;;23.50;47.60;;;;;;6543657;26;78915;-61
2024/04/25 03:28:50;;;;;;;5.05;3.58;;;23.50;47.80;;;;;;6563112;26;82854;-60
2024/04/25 03:31:50;;;;;;;5.18;3.65;;;23.50;47.70;;;;;;6578258;26;81474;-61
2024/04/25 03:34:51;;;;;;;4.72;3.70;;;23.50;47.70;;;;;;6608692;26;80406;-60
2024/04/25 03:37:51;;;;;;;4.90;3.90;;;23.50;47.80;;;;;;6569645;26;80849;-60
2024/04/25 03:40:53;;;;;;;4.53;3.55;;;23.50;47.60;;;;;;6565855;26;83450;-60
2024/04/25 03:43:53;;;;;;;4.63;3.60;;;23.50;47.80;;;;;;6576856;26;78821;-59
2024/04/25 03:46:54;;;;;;;4.35;3.88;;;23.50;47.70;;;;;;6581107;26;79065;-60
2024/04/25 03:49:54;;;;;;;5.35;3.67;;;23.50;47.70;;;;;;6552566;26;81191;-61
2024/04/25 03:52:55;;;;;;;5.82;3.47;;;23.50;47.60;;;;;;6546118;26;79100;-62
2024/04/25 03:55:55;;;;;;;4.53;3.83;;;23.50;47.50;;;;;;6566280;26;79208;-60
2024/04/25 03:58:56;;;;;;;5.68;3.55;;;23.40;47.30;;;;;;6550604;26;80333;-61
2024/04/25 04:01:58;;;;;;;5.40;3.70;;;23.50;47.50;;;;;;6562830;26;79245;-60
2024/04/25 04:04:58;;;;;;;4.97;3.63;;;23.40;47.20;;;;;;6561618;26;80265;-60
2024/04/25 04:07:59;;;;;;;6.95;3.45;;;23.50;47.60;;;;;;6547406;26;80234;-60
2024/04/25 04:10:59;;;;;;;6.55;3.40;;;23.40;47.70;;;;;;6543614;26;78825;-61
2024/04/25 04:14:00;;;;;;;5.05;3.60;;;23.40;48.00;;;;;;6542405;26;79093;-59
2024/04/25 04:17:00;;;;;;;4.93;3.67;;;23.40;48.70;;;;;;6546928;26;78921;-60
2024/04/25 04:20:00;;;;;;;8.35;3.65;;;23.40;48.50;;;;;;6574870;26;79994;-62
2024/04/25 04:23:01;;;;;;;5.38;3.22;;;23.40;48.80;;;;;;6602306;26;78757;-52
2024/04/25 04:26:01;;;;;;;7.50;3.35;;;23.50;49.70;;;;;;6570503;26;82120;-52
2024/04/25 04:29:02;;;;;;;11.68;4.18;;;23.50;49.90;;;;;;6625828;26;79903;-53
2024/04/25 04:32:02;;;;;;;8.20;3.70;;;23.50;49.50;;;;;;6558567;26;89168;-56
2024/04/25 04:35:03;;;;;;;8.52;3.78;;;23.50;49.50;;;;;;6585905;26;85567;-58
2024/04/25 04:38:04;;;;;;;10.50;3.70;;;23.50;49.40;;;;;;6596881;26;80337;-55
2024/04/25 04:41:05;;;;;;;13.70;3.33;;;23.50;49.60;;;;;;6593764;26;79220;-63
2024/04/25 04:44:05;;;;;;;8.02;3.42;;;23.50;49.80;;;;;;6562986;26;79566;-59
2024/04/25 04:47:06;;;;;;;8.75;3.85;;;23.50;49.30;;;;;;6579422;26;80931;-59
2024/04/25 04:50:06;;;;;;;9.10;3.90;;;23.50;49.40;;;;;;6593989;26;79135;-59
2024/04/25 04:53:07;;;;;;;7.22;3.95;;;23.50;49.40;;;;;;6584171;26;85700;-60
2024/04/25 04:56:07;;;;;;;6.90;3.65;;;23.40;49.30;;;;;;6577059;26;80354;-60
2024/04/25 04:59:08;;;;;;;7.72;3.88;;;23.40;49.10;;;;;;6578260;26;79379;-55
2024/04/25 05:02:09;;;;;;;11.32;3.97;;;23.40;48.90;;;;;;6592809;26;81549;-55
2024/04/25 05:05:09;;;;;;;7.60;3.97;;;23.40;48.90;;;;;;6590159;26;81210;-55
2024/04/25 05:08:12;;;;;;;8.35;4.15;;;23.40;48.70;;;;;;6587232;26;81204;-56
2024/04/25 05:11:12;;;;;;;5.75;3.78;;;23.30;48.50;;;;;;6554395;26;79285;-54
2024/04/25 05:14:13;;;;;;;6.68;3.80;;;23.40;48.40;;;;;;6587027;26;78925;-57
2024/04/25 05:17:14;;;;;;;5.63;4.05;;;23.40;48.30;;;;;;6566141;26;78998;-60
2024/04/25 05:20:14;;;;;;;7.72;4.38;;;23.40;48.40;;;;;;6558253;26;80062;-61
2024/04/25 05:23:15;;;;;;;6.45;4.13;;;23.40;48.40;;;;;;6575935;26;81744;-61
2024/04/25 05:26:15;;;;;;;5.05;4.00;;;23.40;48.20;;;;;;6546445;26;78866;-60
2024/04/25 05:29:16;;;;;;;5.70;3.72;;;23.40;48.30;;;;;;6555910;26;79142;-58
2024/04/25 05:32:16;;;;;;;5.82;4.88;;;23.40;48.30;;;;;;6539889;26;80260;-61
2024/04/25 05:35:17;;;;;;;6.05;3.75;;;23.40;48.40;;;;;;6559553;26;80183;-65
2024/04/25 05:38:17;;;;;;;5.93;4.25;;;23.40;48.20;;;;;;6546821;26;78904;-66
2024/04/25 05:41:18;;;;;;;6.97;4.57;;;23.40;48.00;;;;;;6544796;26;79793;-66
2024/04/25 05:44:18;;;;;;;5.68;4.00;;;23.40;47.90;;;;;;6547362;26;79110;-69
2024/04/25 05:47:19;;;;;;;5.72;3.97;;;23.40;47.90;;;;;;6543521;26;80075;-66
2024/04/25 05:50:19;;;;;;;5.60;3.90;;;23.40;47.70;;;;;;6544795;26;78942;-66
2024/04/25 05:53:20;;;;;;;6.07;3.88;;;23.40;47.80;;;;;;6545253;26;79670;-65
2024/04/25 05:56:20;;;;;;;5.32;3.95;;;23.50;47.80;;;;;;6561079;26;80374;-61
2024/04/25 05:59:21;;;;;;;5.35;3.92;;;23.50;48.00;;;;;;6548507;26;79512;-61
2024/04/25 06:02:24;;;;;;;7.25;4.25;;;23.50;47.50;;;;;;6546285;26;83759;-61
2024/04/25 06:05:25;;;;;;;6.30;4.03;;;23.50;47.60;;;;;;6549861;26;79046;-61
2024/04/25 06:08:25;;;;;;;4.40;3.65;;;23.50;47.40;;;;;;6578398;26;80075;-60
2024/04/25 06:11:28;;;;;;;6.53;3.83;;;23.50;47.70;;;;;;6557834;26;80312;-60
2024/04/25 06:14:29;;;;;;;5.80;4.22;;;23.50;47.60;;;;;;6566058;26;79028;-60
2024/04/25 06:17:29;;;;;;;7.18;4.22;;;23.50;47.50;;;;;;6581217;26;78501;-58
2024/04/25 06:20:30;;;;;;;11.32;4.60;;;23.50;47.50;;;;;;6587086;26;79543;-59
2024/04/25 06:23:30;;;;;;;7.90;4.28;;;23.50;47.40;;;;;;6588737;26;80537;-55
2024/04/25 06:26:31;;;;;;;5.15;3.97;;;23.50;47.30;;;;;;6541495;26;79614;-59
2024/04/25 06:29:31;;;;;;;6.38;3.92;;;23.50;47.20;;;;;;6538030;26;81691;-60
2024/04/25 06:32:32;;;;;;;7.00;4.13;;;23.50;47.30;;;;;;6542520;26;80163;-60
2024/04/25 06:35:32;;;;;;;5.70;4.00;;;23.60;47.30;;;;;;6582504;26;79063;-61
2024/04/25 06:38:33;;;;;;;6.50;4.10;;;23.60;47.20;;;;;;6591791;26;79354;-61
2024/04/25 06:41:33;;;;;;;9.07;5.18;;;23.60;47.30;;;;;;6543292;26;78622;-64
2024/04/25 06:44:34;;;;;;;59.42;24.40;;;23.60;47.20;;;;;;6608947;25;83541;-61
2024/04/25 06:47:34;;;;;;;102.35;49.40;;;23.70;47.20;;;;;;6590193;26;81283;-62
2024/04/25 06:50:35;;;;;;;179.63;76.20;;;23.70;47.20;;;;;;6558743;26;85804;-60
2024/04/25 06:53:35;;;;;;;186.32;79.85;;;23.80;47.40;;;;;;6584896;26;81823;-58
2024/04/25 06:56:36;;;;;;;194.15;89.25;;;23.80;47.40;;;;;;6550372;26;81623;-54
2024/04/25 06:59:36;;;;;;;258.50;114.75;;;23.80;47.40;;;;;;6553020;26;82225;-54
2024/04/25 07:02:38;;;;;;;277.95;118.90;;;23.80;47.30;;;;;;6545598;26;83689;-56
2024/04/25 07:05:38;;;;;;;239.32;108.68;;;23.80;47.30;;;;;;6553323;26;84580;-58
2024/04/25 07:08:39;;;;;;;226.68;101.28;;;23.80;47.10;;;;;;6545619;26;84208;-58
2024/04/25 07:11:39;;;;;;;194.32;83.80;;;23.80;47.00;;;;;;6558928;26;84475;-60
2024/04/25 07:14:40;;;;;;;183.40;75.20;;;23.90;47.20;;;;;;6575605;26;84225;-59
2024/04/25 07:17:40;;;;;;;146.38;64.38;;;23.90;47.30;;;;;;6576200;26;87489;-60
2024/04/25 07:20:41;;;;;;;131.75;56.75;;;24.00;47.40;;;;;;6550514;26;90508;-59
2024/04/25 07:23:42;;;;;;;112.13;48.70;;;24.00;47.30;;;;;;6543389;26;82557;-61
2024/04/25 07:26:43;;;;;;;100.40;44.15;;;24.00;47.30;;;;;;6542958;26;88659;-49
2024/04/25 07:29:43;;;;;;;108.18;45.78;;;24.00;47.30;;;;;;6611842;26;82792;-54
2024/04/25 07:32:44;;;;;;;90.95;40.92;;;24.00;47.30;;;;;;6588256;26;82987;-57
2024/04/25 07:35:48;;;;;;;100.28;41.90;;;24.00;47.10;;;;;;6610218;26;82930;-58
2024/04/25 07:38:49;;;;;;;94.05;37.70;;;24.00;47.10;;;;;;6554002;26;82261;-59
2024/04/25 07:41:49;;;;;;;80.28;34.85;;;24.00;47.00;;;;;;6533146;26;81535;-58
2024/04/25 07:44:50;;;;;;;78.60;33.08;;;24.00;46.80;;;;;;6535709;26;83119;-58
2024/04/25 07:47:50;;;;;;;70.03;32.70;;;24.00;46.50;;;;;;6547413;26;83057;-59
2024/04/25 07:50:51;;;;;;;64.07;28.00;;;24.00;46.40;;;;;;6538497;26;83150;-57
2024/04/25 07:53:51;;;;;;;61.70;28.60;;;24.00;46.40;;;;;;6536743;26;82958;-59
2024/04/25 07:56:52;;;;;;;52.45;23.77;;;24.00;46.30;;;;;;6537419;26;84016;-57
2024/04/25 07:59:55;;;;;;;53.85;23.70;;;24.00;46.30;;;;;;6534967;26;82410;-59
2024/04/25 08:02:55;;;;;;;54.05;20.73;;;24.00;46.30;;;;;;6538234;26;83093;-59
2024/04/25 08:05:56;;;;;;;42.60;19.50;;;24.00;46.20;;;;;;6536515;26;83052;-58
2024/04/25 08:08:56;;;;;;;46.45;20.58;;;24.00;46.20;;;;;;6534792;26;82212;-59
2024/04/25 08:11:57;;;;;;;35.92;17.88;;;24.00;46.10;;;;;;6540440;26;82057;-58
2024/04/25 08:14:57;;;;;;;37.67;15.77;;;24.00;46.00;;;;;;6540881;26;82574;-59
2024/04/25 08:17:58;;;;;;;33.90;14.05;;;24.10;46.00;;;;;;6547851;26;81607;-59
2024/04/25 08:21:01;;;;;;;42.88;14.30;;;24.10;46.00;;;;;;6559586;26;81187;-59
2024/04/25 08:24:02;;;;;;;27.88;12.65;;;24.00;45.80;;;;;;6560306;26;82860;-58
2024/04/25 08:27:02;;;;;;;30.25;11.30;;;24.00;45.90;;;;;;6536390;26;88204;-59
2024/04/25 08:30:03;;;;;;;31.55;12.98;;;24.00;45.90;;;;;;6611194;26;81769;-59
2024/04/25 08:33:03;;;;;;;23.02;9.93;;;24.10;46.00;;;;;;6560111;26;87477;-58
2024/04/25 08:36:04;;;;;;;23.08;10.07;;;24.00;45.90;;;;;;6539393;26;81908;-58
2024/04/25 08:39:04;;;;;;;21.17;9.43;;;24.00;46.00;;;;;;6536801;26;81454;-62
2024/04/25 08:42:05;;;;;;;18.73;8.88;;;24.00;45.90;;;;;;6568483;26;82653;-61
2024/04/25 08:45:06;;;;;;;25.73;9.10;;;24.00;46.00;;;;;;6602592;25;78766;-60
2024/04/25 08:48:06;;;;;;;15.52;7.28;;;24.00;45.90;;;;;;6618445;25;79049;-61
2024/04/25 08:51:07;;;;;;;16.73;8.20;;;24.10;45.90;;;;;;6580533;26;81075;-61
2024/04/25 08:54:08;;;;;;;17.75;7.60;;;24.10;45.80;;;;;;6610522;26;79168;-62
2024/04/25 08:57:08;;;;;;;17.20;7.57;;;24.10;45.80;;;;;;6593132;26;80031;-61
2024/04/25 09:00:09;;;;;;;11.52;6.65;;;24.10;45.90;;;;;;6608733;26;81114;-57
2024/04/25 09:03:09;;;;;;;19.70;7.30;;;24.10;45.90;;;;;;6576528;26;78852;-59
2024/04/25 09:06:11;;;;;;;17.38;7.22;;;24.20;45.90;;;;;;6616410;26;79519;-58
2024/04/25 09:09:12;;;;;;;14.45;7.05;;;24.20;45.70;;;;;;6577947;26;79995;-58
2024/04/25 09:12:12;;;;;;;19.55;7.75;;;24.10;45.60;;;;;;6589764;26;78958;-58
2024/04/25 09:15:12;;;;;;;21.25;8.07;;;24.20;45.70;;;;;;6589974;26;80008;-58
2024/04/25 09:18:13;;;;;;;17.25;7.80;;;24.20;45.70;;;;;;6583531;26;78993;-59
2024/04/25 09:21:14;;;;;;;16.02;7.75;;;24.20;45.50;;;;;;6607294;26;79479;-58
2024/04/25 09:24:14;;;;;;;30.33;9.02;;;24.20;45.40;;;;;;6590508;26;78694;-58
2024/04/25 09:27:15;;;;;;;18.88;7.50;;;24.30;45.30;;;;;;6581878;26;79208;-58
2024/04/25 09:30:21;;;;;;;16.02;7.13;;;24.20;45.30;;;;;;6544624;26;79170;-57
2024/04/25 09:33:21;;;;;;;;;;;24.20;45.20;;;;;;6541142;26;79036;-58
2024/04/25 09:36:22;;;;;;;24.60;9.20;;;24.30;45.20;;;;;;6559027;26;78879;-62
2024/04/25 09:39:22;;;;;;;25.35;7.90;;;24.30;45.50;;;;;;6565563;26;81424;-59
2024/04/25 09:42:23;;;;;;;32.97;8.15;;;24.30;45.40;;;;;;6553312;26;80330;-59
2024/04/25 09:45:23;;;;;;;23.55;7.38;;;24.30;45.40;;;;;;6578512;26;80015;-60
2024/04/25 09:48:25;;;;;;;24.48;7.70;;;24.30;45.60;;;;;;6579845;26;80021;-61
2024/04/25 09:51:26;;;;;;;20.85;7.50;;;24.30;45.70;;;;;;6572909;26;81196;-62
2024/04/25 09:54:27;;;;;;;23.40;7.40;;;24.30;45.90;;;;;;6556081;26;78921;-62
2024/04/25 09:57:28;;;;;;;19.70;7.30;;;24.30;45.80;;;;;;6564654;26;79181;-62
2024/04/25 10:00:28;;;;;;;22.55;7.07;;;24.30;45.70;;;;;;6574528;26;80020;-61
2024/04/25 10:03:29;;;;;;;20.77;6.03;;;24.30;45.60;;;;;;6571564;26;79989;-62
2024/04/25 10:06:30;;;;;;;14.63;5.90;;;24.40;45.60;;;;;;6567527;26;80879;-62
2024/04/25 10:09:30;;;;;;;18.55;6.75;;;24.40;45.60;;;;;;6557922;26;81011;-63
2024/04/25 10:12:31;;;;;;;21.42;7.80;;;24.40;45.40;;;;;;6559349;26;79421;-60
2024/04/25 10:15:31;;;;;;;19.55;6.80;;;24.40;45.70;;;;;;6574503;26;78960;-60
2024/04/25 10:18:32;;;;;;;18.45;6.40;;;24.30;45.90;;;;;;6577583;26;79337;-60
2024/04/25 10:21:32;;;;;;;21.67;7.53;;;24.40;46.20;;;;;;6558422;26;79550;-61
2024/04/25 10:24:33;;;;;;;19.27;7.30;;;24.30;46.40;;;;;;6560847;26;79712;-61
2024/04/25 10:27:34;;;;;;;15.70;6.07;;;24.30;46.70;;;;;;6561031;26;83405;-60
2024/04/25 10:30:34;;;;;;;22.40;6.18;;;24.20;47.10;;;;;;6579085;26;79179;-62
2024/04/25 10:33:35;;;;;;;22.02;6.97;;;24.30;47.60;;;;;;6562564;26;78742;-65
2024/04/25 10:36:35;;;;;;;20.25;7.20;;;24.30;48.00;;;;;;6578181;26;79933;-64
2024/04/25 10:39:36;;;;;;;20.73;7.55;;;24.30;48.10;;;;;;6597470;26;79233;-63
2024/04/25 10:42:36;;;;;;;24.05;6.68;;;24.40;49.60;;;;;;6599347;26;79623;-63
2024/04/25 10:45:37;;;;;;;21.88;6.80;;;24.50;49.10;;;;;;6597255;26;87452;-63
2024/04/25 10:48:37;;;;;;;16.80;5.65;;;24.50;49.30;;;;;;6574903;26;79584;-58
2024/04/25 10:51:39;;;;;;;19.60;7.05;;;24.50;50.00;;;;;;6592578;26;78797;-58
2024/04/25 10:54:39;;;;;;;22.10;6.35;;;24.50;51.60;;;;;;6576813;26;80043;-59
2024/04/25 10:57:40;;;;;;;17.48;6.00;;;24.50;51.90;;;;;;6575632;26;79080;-60
2024/04/25 11:00:41;;;;;;;14.77;5.80;;;24.50;52.20;;;;;;6595588;26;78988;-59
2024/04/25 11:03:41;;;;;;;16.38;7.32;;;24.50;51.80;;;;;;6576021;26;80461;-60
2024/04/25 11:06:42;;;;;;;13.20;6.75;;;24.50;52.60;;;;;;6569491;26;84800;-63
2024/04/25 11:09:43;;;;;;;16.92;7.07;;;24.50;52.60;;;;;;6578988;26;79228;-63
2024/04/25 11:12:44;;;;;;;16.88;6.55;;;24.60;53.00;;;;;;6579747;26;80092;-63
2024/04/25 11:15:44;;;;;;;20.20;6.50;;;24.60;52.90;;;;;;6624327;26;78948;-63
2024/04/25 11:18:45;;;;;;;23.42;6.72;;;24.60;53.40;;;;;;6598130;26;79240;-63
2024/04/25 11:21:45;;;;;;;21.50;9.02;;;24.60;53.40;;;;;;6570347;26;81382;-62
2024/04/25 11:24:46;;;;;;;73.90;30.52;;;24.60;54.30;;;;;;6554268;26;80051;-63
2024/04/25 11:27:46;;;;;;;216.07;88.78;;;24.60;54.40;;;;;;6547488;26;81656;-62
2024/04/25 11:30:47;;;;;;;410.33;174.48;;;24.60;54.00;;;;;;6558881;26;82592;-64
2024/04/25 11:33:47;;;;;;;433.90;188.85;;;24.60;53.70;;;;;;6591480;26;84011;-64
2024/04/25 11:36:48;;;;;;;416.63;170.30;;;24.60;53.60;;;;;;6575321;26;84275;-66
2024/04/25 11:39:48;;;;;;;361.88;147.75;;;24.60;53.60;;;;;;6563091;26;83912;-66
2024/04/25 11:42:49;;;;;;;316.80;130.48;;;24.60;53.40;;;;;;6561981;26;83968;-63
2024/04/25 11:45:49;;;;;;;240.32;97.65;;;24.60;52.80;;;;;;6586065;26;85011;-62
2024/04/25 11:48:50;;;;;;;177.55;79.07;;;24.60;52.40;;;;;;6584221;26;84930;-63
2024/04/25 11:51:50;;;;;;;178.35;74.80;;;24.60;51.80;;;;;;6580454;26;81797;-61
2024/04/25 11:54:52;;;;;;;166.20;64.15;;;24.60;51.30;;;;;;6616927;26;83075;-62
2024/04/25 11:57:52;;;;;;;145.15;59.38;;;24.60;51.10;;;;;;6576798;26;82538;-62
2024/04/25 12:00:53;;;;;;;130.10;55.00;;;24.60;50.90;;;;;;6557052;26;82961;-61
2024/04/25 12:03:54;;;;;;;116.22;47.85;;;24.50;50.40;;;;;;6560258;26;81292;-64
2024/04/25 12:06:54;;;;;;;110.88;46.67;;;24.50;50.10;;;;;;6558259;26;83056;-66
2024/04/25 12:09:55;;;;;;;104.25;41.55;;;24.50;49.80;;;;;;6558884;26;81357;-65
2024/04/25 12:12:56;;;;;;;91.80;35.83;;;24.60;49.30;;;;;;6550918;26;82677;-63
2024/04/25 12:15:56;;;;;;;89.32;35.88;;;24.60;49.00;;;;;;6544053;26;82325;-63
2024/04/25 12:18:57;;;;;;;74.57;30.92;;;24.60;48.80;;;;;;6565752;26;82662;-65
2024/04/25 12:21:57;;;;;;;70.43;30.58;;;24.60;48.60;;;;;;6544471;26;81579;-61
2024/04/25 12:24:58;;;;;;;64.45;28.77;;;24.50;48.70;;;;;;6544587;26;82961;-60
2024/04/25 12:27:58;;;;;;;53.78;24.23;;;24.50;48.60;;;;;;6542801;26;82472;-60
2024/04/25 12:30:59;;;;;;;65.20;23.13;;;24.50;48.60;;;;;;6577745;26;83284;-61
2024/04/25 12:33:59;;;;;;;51.05;19.83;;;24.50;48.30;;;;;;6562114;26;81253;-60
2024/04/25 12:37:00;;;;;;;42.42;18.60;;;24.40;47.90;;;;;;6562273;26;81704;-60
2024/04/25 12:40:00;;;;;;;34.75;16.80;;;24.40;47.40;;;;;;6561192;26;84065;-63
2024/04/25 12:43:03;;;;;;;36.83;16.00;;;24.40;47.30;;;;;;6558676;26;83459;-64
2024/04/25 12:46:03;;;;;;;36.03;13.00;;;24.40;46.90;;;;;;6568290;26;81628;-63
2024/04/25 12:49:04;;;;;;;26.45;12.02;;;24.40;46.50;;;;;;6554186;26;83386;-64
2024/04/25 12:52:05;;;;;;;28.83;12.18;;;24.40;46.30;;;;;;6565681;26;85000;-64
2024/04/25 12:55:05;;;;;;;28.83;11.52;;;24.40;46.10;;;;;;6541230;26;81623;-65
2024/04/25 12:58:06;;;;;;;23.55;10.75;;;24.40;46.50;;;;;;6547698;26;83181;-63
2024/04/25 13:01:06;;;;;;;19.67;9.50;;;24.40;45.50;;;;;;6546080;26;82701;-63
2024/04/25 13:04:07;;;;;;;23.25;10.32;;;24.40;45.20;;;;;;6564006;26;83842;-63
2024/04/25 13:07:07;;;;;;;36.92;10.88;;;24.40;45.00;;;;;;6558381;26;84068;-63
2024/04/25 13:10:08;;;;;;;23.40;9.40;;;24.40;45.00;;;;;;6603113;26;82960;-67
2024/04/25 13:13:08;;;;;;;20.92;9.05;;;24.40;45.30;;;;;;6615839;26;81833;-64
2024/04/25 13:16:09;;;;;;;21.10;8.27;;;24.40;45.40;;;;;;6555685;26;81227;-62
2024/04/25 13:19:09;;;;;;;17.55;8.20;;;24.40;45.10;;;;;;6577789;26;78893;-65
2024/04/25 13:22:10;;;;;;;20.10;7.95;;;24.40;45.10;;;;;;6542654;26;79198;-62
2024/04/25 13:25:10;;;;;;;13.80;6.75;;;24.40;45.00;;;;;;6560381;26;79407;-67
2024/04/25 13:28:11;;;;;;;16.08;8.15;;;24.50;45.00;;;;;;6595231;26;84744;-64
2024/04/25 13:31:11;;;;;;;19.85;7.05;;;24.50;45.10;;;;;;6551262;26;80303;-65
2024/04/25 13:34:14;;;;;;;20.90;6.97;;;24.50;44.90;;;;;;6561868;26;83863;-60
2024/04/25 13:37:15;;;;;;;24.35;6.57;;;24.50;44.70;;;;;;6569357;26;80400;-61
2024/04/25 13:40:16;;;;;;;19.42;6.07;;;24.50;44.40;;;;;;6569392;26;80243;-63
2024/04/25 13:43:16;;;;;;;12.15;5.47;;;24.50;44.50;;;;;;6583346;26;83497;-63
2024/04/25 13:46:17;;;;;;;13.82;4.60;;;24.50;44.20;;;;;;6577059;26;81765;-62
2024/04/25 13:49:18;;;;;;;16.10;5.75;;;24.40;43.80;;;;;;6549426;26;81460;-61
2024/04/25 13:52:18;;;;;;;11.25;5.20;;;24.40;43.90;;;;;;6548568;26;81695;-56
2024/04/25 13:55:19;;;;;;;12.38;5.40;;;24.40;43.80;;;;;;6564415;26;83682;-58
2024/04/25 13:58:19;;;;;;;17.70;5.28;;;24.40;43.70;;;;;;6542001;26;79821;-58
2024/04/25 14:01:20;;;;;;;11.75;5.45;;;24.40;43.70;;;;;;6541815;26;82333;-59
2024/04/25 14:04:21;;;;;;;9.77;4.57;;;24.40;44.10;;;;;;6541530;26;79204;-58
2024/04/25 14:07:21;;;;;;;8.13;4.07;;;24.40;43.70;;;;;;6539435;26;79725;-59
2024/04/25 14:10:22;;;;;;;10.30;3.90;;;24.40;43.60;;;;;;6542496;26;79541;-59
2024/04/25 14:13:22;;;;;;;8.27;3.58;;;24.40;43.40;;;;;;6543167;26;79064;-57
2024/04/25 14:16:23;;;;;;;10.82;3.47;;;24.40;43.30;;;;;;6542892;26;79233;-58
2024/04/25 14:19:25;;;;;;;10.93;3.45;;;24.40;43.00;;;;;;6539688;26;80129;-57
2024/04/25 14:22:26;;;;;;;7.57;3.20;;;24.40;43.20;;;;;;6560251;26;80924;-59
2024/04/25 14:28:46;;;;;;;6.93;3.80;;;24.40;43.40;;;;;;6571641;26;79953;-65
2024/04/25 14:31:47;;;;;;;7.00;3.33;;;24.40;42.90;;;;;;6581330;26;78851;-64
2024/04/25 14:34:48;;;;;;;10.23;3.35;;;24.40;43.20;;;;;;6596759;26;81395;-63
2024/04/25 14:37:48;;;;;;;6.90;2.67;;;24.40;43.10;;;;;;6569716;26;78950;-64
2024/04/25 14:40:49;;;;;;;7.75;3.22;;;24.40;43.30;;;;;;6579393;26;82754;-63
2024/04/25 14:43:50;;;;;;;7.15;3.45;;;24.40;43.20;;;;;;6588619;26;79535;-63
2024/04/25 14:46:50;;;;;;;8.60;3.17;;;24.40;43.20;;;;;;6608141;26;81066;-59
2024/04/25 14:49:51;;;;;;;6.25;3.10;;;24.40;43.20;;;;;;6574879;26;79558;-58
2024/04/25 14:52:51;;;;;;;6.45;3.30;;;24.40;43.30;;;;;;6581433;26;80605;-59
2024/04/25 14:55:52;;;;;;;7.30;2.72;;;24.40;43.00;;;;;;6572371;26;81827;-61
2024/04/25 14:58:52;;;;;;;5.45;2.90;;;24.40;43.10;;;;;;6592116;26;79036;-60
2024/04/25 15:01:53;;;;;;;5.80;2.65;;;24.40;43.20;;;;;;6573024;26;80028;-60
2024/04/25 15:04:54;;;;;;;6.38;2.38;;;24.40;43.50;;;;;;6577043;26;85661;-61
2024/04/25 15:07:55;;;;;;;7.75;2.55;;;24.40;43.20;;;;;;6574731;26;81067;-60
2024/04/25 15:10:55;;;;;;;7.68;2.80;;;24.40;43.10;;;;;;6610219;26;79087;-58
2024/04/25 15:13:56;;;;;;;4.10;2.28;;;24.40;42.70;;;;;;6573752;26;79157;-60
2024/04/25 15:16:57;;;;;;;8.18;2.60;;;24.40;42.80;;;;;;6574822;26;79735;-59
2024/04/25 15:19:58;;;;;;;4.38;2.38;;;24.40;42.80;;;;;;6562913;26;79603;-60
2024/04/25 15:22:58;;;;;;;6.80;2.63;;;24.40;42.50;;;;;;6560838;26;82696;-62
2024/04/25 15:25:59;;;;;;;7.47;2.33;;;24.40;42.60;;;;;;6562541;26;79685;-60
2024/04/25 15:28:59;;;;;;;10.55;2.03;;;24.40;42.60;;;;;;6569228;26;83689;-61
2024/04/25 15:32:00;;;;;;;5.10;2.53;;;24.40;42.50;;;;;;6572192;26;79696;-61
2024/04/25 15:35:00;;;;;;;7.72;2.65;;;24.30;42.50;;;;;;6567844;26;83012;-61